Time;durP1;ratioP1;P1;durP2;ratioP2;P2;SDS_P1;SDS_P2;PMS_P1;PMS_P2;Temp;Humidity;BMP_temperature;BMP_pressure;BME280_temperature;BME280_humidity;BME280_pressure;Samples;Min_cycle;Max_cycle;Signal;HPM_P1;HPM_P2
2024/01/26 00:02:40;;;;;;;10.02;4.40;;;11.70;99.90;;;;;;10059919;28;20064;-68
2024/01/26 00:07:31;;;;;;;9.07;4.45;;;11.80;99.90;;;;;;10059503;28;20045;-66
2024/01/26 00:12:22;;;;;;;7.47;4.90;;;11.70;99.90;;;;;;10060620;28;20079;-67
2024/01/26 00:17:12;;;;;;;6.78;4.55;;;11.70;99.90;;;;;;10059306;28;20471;-65
2024/01/26 00:22:03;;;;;;;6.30;3.85;;;11.70;99.90;;;;;;10058994;28;20061;-65
2024/01/26 00:26:54;;;;;;;6.88;4.25;;;11.80;99.90;;;;;;10059238;28;20087;-66
2024/01/26 00:31:45;;;;;;;6.55;4.53;;;11.70;99.90;;;;;;10092628;28;20033;-67
2024/01/26 00:36:35;;;;;;;7.07;4.70;;;11.80;99.90;;;;;;10058322;28;20035;-65
2024/01/26 00:41:26;;;;;;;6.43;4.15;;;11.80;99.90;;;;;;10058510;28;20079;-66
2024/01/26 00:46:16;;;;;;;7.93;4.43;;;11.80;99.90;;;;;;10057214;28;20032;-65
2024/01/26 00:51:07;;;;;;;5.80;3.80;;;11.80;99.90;;;;;;10100228;28;20156;-65
2024/01/26 00:55:58;;;;;;;5.80;3.50;;;11.80;99.90;;;;;;10058431;28;20319;-65
2024/01/26 01:00:49;;;;;;;7.00;3.75;;;11.80;99.90;;;;;;10057613;28;20049;-66
2024/01/26 01:05:40;;;;;;;4.75;3.28;;;11.70;99.90;;;;;;10057899;28;20512;-65
2024/01/26 01:10:30;;;;;;;5.63;3.15;;;11.70;99.90;;;;;;10057727;28;20033;-69
2024/01/26 01:15:23;;;;;;;4.50;3.17;;;11.80;99.90;;;;;;10059556;28;20459;-66
2024/01/26 01:20:14;;;;;;;2.97;2.40;;;11.70;99.90;;;;;;10057137;28;20037;-65
2024/01/26 01:25:06;;;;;;;4.47;2.22;;;11.80;99.90;;;;;;10057213;28;20041;-66
2024/01/26 01:29:56;;;;;;;5.78;3.00;;;11.80;99.90;;;;;;10056531;28;20053;-65
2024/01/26 01:34:47;;;;;;;4.45;2.10;;;11.80;99.90;;;;;;10056325;28;20476;-67
2024/01/26 01:39:38;;;;;;;3.78;2.25;;;11.80;99.90;;;;;;10056223;28;20109;-67
2024/01/26 01:44:29;;;;;;;3.10;2.13;;;11.70;99.90;;;;;;10090984;28;20028;-68
2024/01/26 01:49:20;;;;;;;3.00;1.70;;;11.70;99.90;;;;;;10063377;28;20041;-67
2024/01/26 01:54:12;;;;;;;2.45;1.40;;;11.70;99.90;;;;;;10062042;28;20102;-68
2024/01/26 01:59:03;;;;;;;2.28;1.63;;;11.70;99.90;;;;;;10056087;28;20033;-70
2024/01/26 02:03:54;;;;;;;2.05;1.55;;;11.70;99.90;;;;;;10054159;28;20126;-69
2024/01/26 02:08:45;;;;;;;1.70;1.27;;;11.70;99.90;;;;;;10053506;28;20165;-67
2024/01/26 02:13:35;;;;;;;2.40;1.30;;;11.70;99.90;;;;;;10055252;28;20451;-70
2024/01/26 02:18:26;;;;;;;1.58;1.08;;;11.70;99.90;;;;;;10054935;28;20495;-70
2024/01/26 02:23:23;;;;;;;1.30;0.95;;;11.70;99.90;;;;;;10054869;28;20128;-69
2024/01/26 02:28:14;;;;;;;1.88;1.00;;;11.70;99.90;;;;;;10055239;28;20094;-68
2024/01/26 02:33:05;;;;;;;1.38;0.93;;;11.70;99.90;;;;;;10055386;28;20029;-66
2024/01/26 02:37:56;;;;;;;2.05;1.00;;;11.70;99.90;;;;;;10056540;28;20852;-65
2024/01/26 02:42:46;;;;;;;1.63;1.00;;;11.60;99.90;;;;;;10056974;28;20083;-65
2024/01/26 02:47:37;;;;;;;1.17;0.80;;;11.60;99.90;;;;;;10060468;28;20140;-68
2024/01/26 02:52:27;;;;;;;1.77;1.20;;;11.60;99.90;;;;;;10063418;28;20044;-67
2024/01/26 02:57:18;;;;;;;2.25;1.48;;;11.50;99.90;;;;;;10062717;28;20030;-66
2024/01/26 03:02:08;;;;;;;1.45;1.05;;;11.60;99.90;;;;;;10062758;28;20037;-66
2024/01/26 03:06:59;;;;;;;2.58;1.10;;;11.60;99.90;;;;;;10062402;28;20026;-65
2024/01/26 03:11:50;;;;;;;3.40;1.30;;;11.60;99.90;;;;;;10062350;28;20037;-65
2024/01/26 03:16:41;;;;;;;1.55;0.95;;;11.50;99.90;;;;;;10061781;28;20028;-65
2024/01/26 03:21:31;;;;;;;1.95;1.38;;;11.50;99.90;;;;;;10065685;28;20046;-67
2024/01/26 03:26:22;;;;;;;1.40;1.00;;;11.50;99.90;;;;;;10062101;28;20390;-67
2024/01/26 03:31:13;;;;;;;1.20;1.10;;;11.50;99.90;;;;;;10059904;28;20029;-67
2024/01/26 03:36:04;;;;;;;2.22;1.20;;;11.40;99.90;;;;;;10059616;28;20438;-69
2024/01/26 03:40:55;;;;;;;3.15;1.10;;;11.40;99.90;;;;;;10061279;28;20499;-66
2024/01/26 03:45:45;;;;;;;2.33;1.15;;;11.40;99.90;;;;;;10061002;28;20029;-68
2024/01/26 03:50:36;;;;;;;1.08;0.82;;;11.40;99.90;;;;;;10060874;28;20095;-65
2024/01/26 03:55:27;;;;;;;3.78;1.17;;;11.30;99.90;;;;;;10060303;28;20122;-65
2024/01/26 04:00:17;;;;;;;1.90;1.17;;;11.30;99.90;;;;;;10064355;28;20036;-65
2024/01/26 04:05:11;;;;;;;3.25;1.17;;;11.30;99.90;;;;;;10060457;28;20411;-65
2024/01/26 04:10:02;;;;;;;1.45;1.13;;;11.40;99.90;;;;;;10058607;28;20053;-65
2024/01/26 04:14:53;;;;;;;2.83;1.40;;;11.30;99.90;;;;;;10061529;28;20021;-65
2024/01/26 04:19:44;;;;;;;1.98;1.40;;;11.40;99.90;;;;;;10066721;28;20044;-65
2024/01/26 04:24:34;;;;;;;2.22;1.30;;;11.30;99.90;;;;;;10059577;28;20045;-65
2024/01/26 04:29:25;;;;;;;2.38;0.98;;;11.30;99.90;;;;;;10059030;28;20408;-65
2024/01/26 04:34:16;;;;;;;1.67;0.85;;;11.30;99.90;;;;;;10059812;28;20120;-64
2024/01/26 04:39:06;;;;;;;2.40;1.52;;;11.30;99.90;;;;;;10059603;28;20099;-65
2024/01/26 04:43:57;;;;;;;2.50;1.77;;;11.30;99.90;;;;;;10058908;28;20065;-65
2024/01/26 04:48:48;;;;;;;1.40;0.98;;;11.40;99.90;;;;;;10056489;28;20044;-65
2024/01/26 04:53:38;;;;;;;1.67;1.10;;;11.40;99.90;;;;;;10056990;28;20041;-66
2024/01/26 04:58:29;;;;;;;1.33;1.02;;;11.40;99.90;;;;;;10057973;28;20475;-66
2024/01/26 05:03:19;;;;;;;3.45;1.23;;;11.40;99.90;;;;;;10057716;28;20057;-65
2024/01/26 05:08:10;;;;;;;2.05;1.15;;;11.40;99.90;;;;;;10057304;28;20133;-65
2024/01/26 05:13:01;;;;;;;2.03;1.27;;;11.40;99.90;;;;;;10062059;28;20269;-67
2024/01/26 05:17:51;;;;;;;1.58;0.98;;;11.30;99.90;;;;;;10057687;28;20626;-65
2024/01/26 05:22:42;;;;;;;4.88;1.65;;;11.30;99.90;;;;;;10057516;28;20045;-68
2024/01/26 05:27:33;;;;;;;1.60;0.90;;;11.30;99.90;;;;;;10057249;28;20025;-67
2024/01/26 05:32:23;;;;;;;1.77;1.05;;;11.30;99.90;;;;;;10057638;28;20053;-67
2024/01/26 05:37:14;;;;;;;2.38;1.48;;;11.30;99.90;;;;;;10056525;28;20025;-69
2024/01/26 05:42:05;;;;;;;1.20;1.00;;;11.40;99.90;;;;;;10057436;28;20112;-67
2024/01/26 05:46:55;;;;;;;1.67;1.50;;;11.30;99.90;;;;;;10056776;28;20108;-68
2024/01/26 05:51:46;;;;;;;3.45;1.20;;;11.30;99.90;;;;;;10061369;28;20431;-68
2024/01/26 05:56:43;;;;;;;1.42;0.90;;;11.30;99.90;;;;;;10056220;28;20064;-69
2024/01/26 06:01:34;;;;;;;2.38;1.20;;;11.30;99.90;;;;;;10056603;28;20033;-69
2024/01/26 06:06:25;;;;;;;1.90;1.52;;;11.30;99.90;;;;;;10055516;28;20052;-67
2024/01/26 06:11:17;;;;;;;1.27;1.00;;;11.30;99.90;;;;;;10060875;28;20053;-69
2024/01/26 06:16:07;;;;;;;1.75;1.27;;;11.30;99.90;;;;;;10055075;28;20398;-69
2024/01/26 06:20:58;;;;;;;1.83;1.17;;;11.30;99.90;;;;;;10054587;28;20057;-69
2024/01/26 06:25:49;;;;;;;1.77;1.02;;;11.30;99.90;;;;;;10055736;28;20063;-69
2024/01/26 06:30:39;;;;;;;1.63;1.00;;;11.30;99.90;;;;;;10055818;28;20436;-68
2024/01/26 06:35:30;;;;;;;1.80;1.00;;;11.20;99.90;;;;;;10055927;28;20029;-69
2024/01/26 06:40:21;;;;;;;2.35;0.95;;;11.20;99.90;;;;;;10055805;28;20029;-69
2024/01/26 06:45:13;;;;;;;3.88;1.00;;;11.30;99.90;;;;;;10055279;28;20041;-65
2024/01/26 06:50:04;;;;;;;1.50;0.98;;;11.30;99.90;;;;;;10057071;28;20045;-67
2024/01/26 06:54:55;;;;;;;4.65;1.40;;;11.30;99.90;;;;;;10055520;28;20034;-66
2024/01/26 06:59:46;;;;;;;2.53;1.60;;;11.30;99.90;;;;;;10054763;28;20029;-66
2024/01/26 07:04:36;;;;;;;3.15;1.15;;;11.30;99.90;;;;;;10056010;28;20030;-65
2024/01/26 07:09:27;;;;;;;1.63;1.30;;;11.30;99.90;;;;;;10054823;28;20490;-66
2024/01/26 07:14:19;;;;;;;1.73;1.13;;;11.30;99.90;;;;;;10054641;28;20575;-66
2024/01/26 07:19:10;;;;;;;3.15;1.23;;;11.30;99.90;;;;;;10054242;28;20102;-65
2024/01/26 07:24:00;;;;;;;3.78;1.20;;;11.30;99.90;;;;;;10054511;28;20056;-68
2024/01/26 07:28:51;;;;;;;1.48;0.88;;;11.30;99.90;;;;;;10055059;28;20060;-65
2024/01/26 07:33:42;;;;;;;2.85;1.00;;;11.30;99.90;;;;;;10060261;28;20515;-66
2024/01/26 07:38:32;;;;;;;2.70;1.15;;;11.30;99.90;;;;;;10059054;28;20103;-66
2024/01/26 07:43:26;;;;;;;1.88;1.00;;;11.40;99.90;;;;;;10059408;28;20116;-66
2024/01/26 07:48:17;;;;;;;2.50;1.10;;;11.40;99.90;;;;;;10056989;28;20021;-66
2024/01/26 07:53:08;;;;;;;3.03;1.10;;;11.40;99.90;;;;;;10059934;28;20538;-66
2024/01/26 07:57:59;;;;;;;1.45;0.90;;;11.40;99.90;;;;;;10060438;28;20083;-68
2024/01/26 08:02:49;;;;;;;1.58;0.82;;;11.40;99.90;;;;;;10073337;28;20091;-67
2024/01/26 08:07:40;;;;;;;1.55;1.45;;;11.40;99.90;;;;;;10059671;28;20040;-66
2024/01/26 08:12:31;;;;;;;1.83;0.90;;;11.40;99.90;;;;;;10059621;28;20046;-69
2024/01/26 08:17:21;;;;;;;3.10;1.17;;;11.40;99.90;;;;;;10059421;28;20048;-69
2024/01/26 08:22:12;;;;;;;1.40;1.00;;;11.50;99.90;;;;;;10060092;28;20132;-68
2024/01/26 08:27:03;;;;;;;2.13;1.10;;;11.50;99.90;;;;;;10058629;28;20114;-71
2024/01/26 08:31:53;;;;;;;2.00;1.23;;;11.50;99.90;;;;;;10091320;28;20550;-68
2024/01/26 08:36:44;;;;;;;1.90;1.00;;;11.50;99.90;;;;;;10056640;28;20495;-68
2024/01/26 08:41:35;;;;;;;6.82;1.60;;;11.40;99.90;;;;;;10059147;28;20025;-69
2024/01/26 08:46:25;;;;;;;3.97;1.35;;;11.40;99.90;;;;;;10058513;28;20697;-68
2024/01/26 08:51:16;;;;;;;2.72;1.30;;;11.50;99.90;;;;;;10057791;28;20533;-67
2024/01/26 08:56:07;;;;;;;2.65;1.10;;;11.50;99.90;;;;;;10057838;28;20017;-67
2024/01/26 09:00:58;;;;;;;1.92;1.10;;;11.50;99.90;;;;;;10060598;28;20075;-69
2024/01/26 09:05:48;;;;;;;1.95;1.23;;;11.50;99.90;;;;;;10060932;28;20033;-70
2024/01/26 09:10:39;;;;;;;3.83;1.50;;;11.50;99.90;;;;;;10058287;28;20045;-73
2024/01/26 09:15:30;;;;;;;1.50;1.20;;;11.50;99.90;;;;;;10057710;28;20124;-68
2024/01/26 09:20:20;;;;;;;2.83;1.13;;;11.60;99.90;;;;;;10056367;28;20044;-69
2024/01/26 09:25:11;;;;;;;2.08;1.20;;;11.60;99.90;;;;;;10059314;28;20042;-71
2024/01/26 09:30:03;;;;;;;1.75;0.98;;;11.60;99.90;;;;;;10057614;28;20132;-70
2024/01/26 09:34:54;;;;;;;2.90;1.13;;;11.60;99.90;;;;;;10056892;28;20021;-71
2024/01/26 09:39:45;;;;;;;2.97;1.58;;;11.60;99.90;;;;;;10056405;28;20112;-69
2024/01/26 09:44:36;;;;;;;1.63;1.45;;;11.60;99.90;;;;;;10057079;28;20112;-67
2024/01/26 09:49:29;;;;;;;1.77;1.42;;;11.70;99.90;;;;;;10055293;28;20570;-67
2024/01/26 09:54:20;;;;;;;3.58;2.10;;;11.70;99.90;;;;;;10055560;28;20053;-68
2024/01/26 09:59:11;;;;;;;2.95;1.17;;;11.80;99.90;;;;;;10056784;28;20034;-69
2024/01/26 10:04:02;;;;;;;2.40;1.52;;;11.80;99.90;;;;;;10056688;28;20025;-68
2024/01/26 10:08:53;;;;;;;2.22;1.17;;;11.80;99.90;;;;;;10055107;28;20037;-68
2024/01/26 10:13:44;;;;;;;1.58;1.15;;;11.80;99.90;;;;;;10054571;28;20041;-70
2024/01/26 10:18:43;;;;;;;2.33;1.67;;;11.80;99.90;;;;;;10054254;28;20033;-69
2024/01/26 10:23:34;;;;;;;2.13;1.58;;;11.90;99.90;;;;;;10055654;28;20053;-69
2024/01/26 10:28:24;;;;;;;2.25;1.58;;;11.90;99.90;;;;;;10054443;28;20529;-68
2024/01/26 10:33:16;;;;;;;2.70;1.38;;;12.00;99.90;;;;;;10055462;28;20045;-67
2024/01/26 10:38:09;;;;;;;1.35;1.00;;;12.00;99.90;;;;;;10055856;28;20022;-67
2024/01/26 10:43:00;;;;;;;1.60;1.00;;;12.00;99.90;;;;;;10072011;28;20061;-69
2024/01/26 10:47:52;;;;;;;3.45;1.63;;;12.00;99.90;;;;;;10054678;28;20030;-67
2024/01/26 10:52:45;;;;;;;1.92;1.58;;;12.00;99.90;;;;;;10055408;28;20065;-69
2024/01/26 10:57:35;;;;;;;3.20;1.60;;;12.10;99.90;;;;;;10055449;28;20485;-69
2024/01/26 11:02:31;;;;;;;2.72;1.30;;;12.10;99.90;;;;;;10055018;28;20034;-68
2024/01/26 11:07:22;;;;;;;2.70;1.17;;;12.10;99.90;;;;;;10057758;28;20117;-69
2024/01/26 11:12:25;;;;;;;3.78;1.38;;;12.10;99.90;;;;;;10070621;28;20630;-69
2024/01/26 11:17:19;;;;;;;2.13;1.40;;;12.10;99.90;;;;;;10062333;28;20104;-68
2024/01/26 11:22:14;;;;;;;1.83;1.17;;;12.10;99.90;;;;;;10064466;28;20052;-67
2024/01/26 11:27:05;;;;;;;1.57;1.30;;;12.10;99.90;;;;;;10061173;28;20029;-69
2024/01/26 11:31:56;;;;;;;2.53;1.30;;;12.10;99.90;;;;;;10061938;28;20049;-67
2024/01/26 11:36:46;;;;;;;2.30;1.52;;;12.10;99.90;;;;;;10061539;28;20142;-67
2024/01/26 11:41:43;;;;;;;3.55;1.90;;;12.10;99.90;;;;;;10058526;28;20391;-67
2024/01/26 11:46:36;;;;;;;4.45;2.25;;;12.10;99.90;;;;;;10057370;28;20097;-66
2024/01/26 11:51:27;;;;;;;2.60;1.42;;;12.10;99.90;;;;;;10055169;28;20563;-66
2024/01/26 11:56:18;;;;;;;5.03;1.90;;;12.20;99.90;;;;;;10057899;28;20108;-67
2024/01/26 12:01:08;;;;;;;4.15;2.70;;;12.10;99.90;;;;;;10060327;28;20568;-68
2024/01/26 12:05:59;;;;;;;3.28;1.58;;;12.20;99.90;;;;;;10065000;28;20071;-67
2024/01/26 12:10:50;;;;;;;3.22;1.42;;;12.10;99.90;;;;;;10057489;28;20096;-66
2024/01/26 12:15:41;;;;;;;3.00;1.70;;;12.20;99.90;;;;;;10091828;28;20017;-68
2024/01/26 12:20:31;;;;;;;3.30;1.80;;;12.10;99.90;;;;;;10057952;28;20446;-69
2024/01/26 12:25:27;;;;;;;3.65;1.50;;;12.10;99.90;;;;;;10060257;28;20088;-68
2024/01/26 12:30:18;;;;;;;;;;;12.10;99.90;;;;;;10058940;28;20033;-68
2024/01/26 12:35:09;;;;;;;1.75;1.10;;;12.10;99.90;;;;;;10059598;28;19912;-68
2024/01/26 12:39:59;;;;;;;6.55;1.90;;;12.10;99.90;;;;;;10061870;28;20053;-68
2024/01/26 12:44:50;;;;;;;2.95;1.70;;;12.10;99.90;;;;;;10057426;28;20065;-68
2024/01/26 12:49:41;;;;;;;1.63;1.42;;;12.10;99.90;;;;;;10059513;28;20045;-67
2024/01/26 12:54:32;;;;;;;1.92;1.10;;;12.10;99.90;;;;;;10058006;28;20037;-68
2024/01/26 12:59:22;;;;;;;2.15;1.30;;;12.00;99.90;;;;;;10063542;28;20052;-69
2024/01/26 13:04:13;;;;;;;1.80;1.15;;;12.00;99.90;;;;;;10054697;28;20432;-68
2024/01/26 13:09:07;;;;;;;2.88;1.23;;;11.90;99.90;;;;;;10054070;28;20029;-67
2024/01/26 13:13:58;;;;;;;1.70;0.70;;;11.90;99.90;;;;;;10051480;28;20546;-68
2024/01/26 13:18:48;;;;;;;1.40;0.95;;;12.00;99.90;;;;;;10043038;28;20040;-68
2024/01/26 13:23:40;;;;;;;1.15;0.80;;;12.00;99.90;;;;;;10041467;28;20080;-67
2024/01/26 13:28:31;;;;;;;2.30;0.60;;;12.00;99.90;;;;;;10046305;28;20040;-67
2024/01/26 13:33:22;;;;;;;1.33;0.82;;;12.00;99.90;;;;;;10053562;28;20588;-65
2024/01/26 13:38:13;;;;;;;1.63;0.88;;;12.00;99.90;;;;;;10040343;28;20040;-66
2024/01/26 13:43:03;;;;;;;1.30;0.80;;;12.00;99.90;;;;;;10057070;28;20033;-67
2024/01/26 13:47:54;;;;;;;3.90;1.10;;;12.00;99.90;;;;;;10054581;28;20029;-68
2024/01/26 13:52:45;;;;;;;1.05;0.82;;;12.10;99.90;;;;;;10049978;28;20037;-66
2024/01/26 13:57:36;;;;;;;2.08;1.00;;;12.10;99.90;;;;;;10056021;28;20120;-67
2024/01/26 14:02:26;;;;;;;1.75;1.30;;;12.20;99.90;;;;;;10052742;28;20029;-67
2024/01/26 14:07:17;;;;;;;3.17;1.30;;;12.10;99.90;;;;;;10054870;28;20028;-66
2024/01/26 14:12:08;;;;;;;2.40;1.30;;;12.10;99.90;;;;;;10055885;28;20041;-68
2024/01/26 14:16:59;;;;;;;4.18;1.73;;;12.10;99.90;;;;;;10060331;28;20164;-68
2024/01/26 14:21:50;;;;;;;2.42;1.23;;;12.10;99.90;;;;;;10052350;28;20067;-67
2024/01/26 14:26:40;;;;;;;1.70;1.33;;;12.10;99.90;;;;;;10055934;28;20396;-67
2024/01/26 14:31:35;;;;;;;4.22;1.63;;;12.10;99.90;;;;;;10055417;28;20033;-66
2024/01/26 14:36:26;;;;;;;2.50;1.37;;;12.20;99.90;;;;;;10052710;28;20021;-68
2024/01/26 14:41:16;;;;;;;1.95;1.30;;;12.20;99.90;;;;;;10066087;28;20056;-68
2024/01/26 14:46:08;;;;;;;2.13;1.50;;;12.20;99.90;;;;;;10063577;28;20017;-69
2024/01/26 14:50:59;;;;;;;2.40;1.20;;;12.20;99.90;;;;;;10063232;28;20056;-68
2024/01/26 14:55:49;;;;;;;1.92;1.33;;;12.20;99.90;;;;;;10063336;28;20052;-70
2024/01/26 15:00:43;;;;;;;2.22;1.33;;;12.20;99.90;;;;;;10064509;28;20030;-71
2024/01/26 15:05:34;;;;;;;2.60;2.00;;;12.20;99.90;;;;;;10059003;28;20053;-68
2024/01/26 15:10:24;;;;;;;2.65;1.17;;;12.20;99.90;;;;;;10061930;28;20029;-68
2024/01/26 15:15:18;;;;;;;1.48;0.80;;;12.20;99.90;;;;;;10061935;28;20026;-71
2024/01/26 15:20:09;;;;;;;2.42;1.00;;;12.20;99.90;;;;;;10063752;28;20110;-70
2024/01/26 15:25:00;;;;;;;1.10;0.80;;;12.20;99.90;;;;;;10063938;28;20057;-69
2024/01/26 15:29:51;;;;;;;2.65;0.82;;;12.30;99.90;;;;;;10060917;28;20072;-70
2024/01/26 15:34:42;;;;;;;0.68;0.57;;;12.30;99.90;;;;;;10060927;28;20087;-71
2024/01/26 15:39:34;;;;;;;0.65;0.50;;;12.40;99.90;;;;;;10060507;28;20084;-67
2024/01/26 15:44:25;;;;;;;1.02;0.73;;;12.40;99.90;;;;;;10060719;28;20025;-69
2024/01/26 15:49:17;;;;;;;1.73;0.57;;;12.40;99.90;;;;;;10060792;28;20044;-69
2024/01/26 15:54:10;;;;;;;1.10;1.00;;;12.30;99.90;;;;;;10060680;28;20105;-69
2024/01/26 15:59:01;;;;;;;1.45;0.50;;;12.30;99.90;;;;;;10060714;28;20454;-69
2024/01/26 16:03:52;;;;;;;0.77;0.65;;;12.30;99.90;;;;;;10063090;28;20037;-68
2024/01/26 16:08:43;;;;;;;0.50;0.30;;;12.20;99.90;;;;;;10059921;28;20040;-72
2024/01/26 16:13:33;;;;;;;1.92;0.82;;;12.20;99.90;;;;;;10060608;28;20037;-69
2024/01/26 16:18:24;;;;;;;0.90;0.60;;;12.20;99.90;;;;;;10060344;28;20341;-67
2024/01/26 16:23:15;;;;;;;1.83;0.52;;;12.20;99.90;;;;;;10059858;28;20057;-67
2024/01/26 16:28:05;;;;;;;0.90;0.55;;;12.10;99.90;;;;;;10058552;28;20091;-69
2024/01/26 16:32:56;;;;;;;0.80;0.57;;;12.10;99.90;;;;;;10053535;28;20040;-69
2024/01/26 16:37:47;;;;;;;0.88;0.43;;;12.10;99.90;;;;;;10056712;28;20473;-68
2024/01/26 16:42:37;;;;;;;1.05;0.45;;;12.10;99.90;;;;;;10059146;28;20033;-72
2024/01/26 16:47:28;;;;;;;0.63;0.40;;;12.10;99.90;;;;;;10057322;28;20033;-75
2024/01/26 16:52:23;;;;;;;3.00;0.40;;;12.10;99.90;;;;;;10057532;28;20049;-71
2024/01/26 16:57:13;;;;;;;0.77;0.47;;;12.10;99.90;;;;;;10060001;28;20513;-72
2024/01/26 17:02:05;;;;;;;4.13;1.00;;;12.10;99.90;;;;;;10063884;28;20032;-73
2024/01/26 17:06:55;;;;;;;1.65;0.57;;;12.10;99.90;;;;;;10058231;28;20029;-73
2024/01/26 17:11:50;;;;;;;1.88;1.00;;;12.00;99.90;;;;;;10057576;28;20033;-69
2024/01/26 17:16:41;;;;;;;1.23;0.88;;;12.00;99.90;;;;;;10055926;28;20140;-69
2024/01/26 17:21:32;;;;;;;1.20;0.70;;;11.90;99.90;;;;;;10056595;28;20045;-69
2024/01/26 17:26:23;;;;;;;1.80;0.80;;;11.80;99.90;;;;;;10058854;28;20034;-71
2024/01/26 17:31:14;;;;;;;1.50;0.85;;;11.80;99.90;;;;;;10043747;28;20028;-72
2024/01/26 17:36:05;;;;;;;4.35;1.10;;;11.80;99.90;;;;;;10053271;28;20095;-71
2024/01/26 17:40:58;;;;;;;3.42;1.58;;;11.80;99.90;;;;;;10056217;28;20025;-71
2024/01/26 17:45:48;;;;;;;4.43;1.60;;;11.90;99.90;;;;;;10056481;28;20557;-71
2024/01/26 17:50:39;;;;;;;4.75;2.30;;;11.90;99.90;;;;;;10057207;28;20095;-71
2024/01/26 17:55:39;;;;;;;4.65;1.70;;;11.80;99.90;;;;;;10056031;28;20041;-73
2024/01/26 18:00:36;;;;;;;1.70;1.20;;;11.80;99.90;;;;;;10055942;28;20049;-72
2024/01/26 18:05:27;;;;;;;4.20;1.75;;;11.80;99.90;;;;;;10083067;28;20052;-73
2024/01/26 18:10:18;;;;;;;2.00;1.70;;;11.80;99.90;;;;;;10057098;28;20447;-72
2024/01/26 18:15:09;;;;;;;3.15;1.60;;;11.80;99.90;;;;;;10055926;28;20049;-72
2024/01/26 18:20:00;;;;;;;3.03;1.40;;;11.80;99.90;;;;;;10055942;28;20038;-72
2024/01/26 18:24:50;;;;;;;6.20;1.35;;;11.80;99.90;;;;;;10058435;28;20052;-72
2024/01/26 18:29:42;;;;;;;3.13;1.40;;;11.80;99.90;;;;;;10055519;28;20068;-70
2024/01/26 18:34:33;;;;;;;3.35;1.42;;;11.80;99.90;;;;;;10054803;28;20029;-72
2024/01/26 18:39:23;;;;;;;2.60;1.58;;;11.70;99.90;;;;;;10055526;28;20033;-72
2024/01/26 18:44:14;;;;;;;2.83;1.48;;;11.80;99.90;;;;;;10055400;28;20179;-72
2024/01/26 18:49:05;;;;;;;3.90;1.50;;;11.70;99.90;;;;;;10058872;28;20175;-71
2024/01/26 18:53:59;;;;;;;3.50;1.80;;;11.50;99.90;;;;;;10054584;28;20048;-72
2024/01/26 18:58:50;;;;;;;4.45;1.98;;;11.50;99.90;;;;;;10053429;28;20124;-72
2024/01/26 19:03:42;;;;;;;4.15;1.83;;;11.40;99.90;;;;;;10054760;28;20467;-71
2024/01/26 19:08:32;;;;;;;3.05;1.60;;;11.40;99.90;;;;;;10054880;28;20109;-71
2024/01/26 19:13:23;;;;;;;3.63;1.73;;;11.30;99.90;;;;;;10054479;28;20116;-71
2024/01/26 19:18:19;;;;;;;5.60;2.38;;;11.30;99.90;;;;;;10054820;28;20022;-72
2024/01/26 19:23:10;;;;;;;3.10;1.63;;;11.30;99.90;;;;;;10054645;28;20057;-72
2024/01/26 19:28:02;;;;;;;3.42;2.08;;;11.30;99.90;;;;;;10053762;28;20057;-72
2024/01/26 19:32:54;;;;;;;2.13;1.58;;;11.20;99.90;;;;;;10057535;28;20044;-72
2024/01/26 19:37:46;;;;;;;3.30;2.08;;;11.10;99.90;;;;;;10060124;28;20030;-72
2024/01/26 19:42:36;;;;;;;5.50;1.58;;;11.10;99.90;;;;;;10061084;28;20044;-73
2024/01/26 19:47:28;;;;;;;6.05;1.85;;;11.10;99.90;;;;;;10060689;28;20159;-72
2024/01/26 19:52:19;;;;;;;3.97;2.03;;;11.00;99.90;;;;;;10061108;28;20037;-73
2024/01/26 19:57:13;;;;;;;4.43;1.85;;;11.10;99.90;;;;;;10059651;28;20029;-72
2024/01/26 20:02:04;;;;;;;4.07;1.80;;;11.00;99.90;;;;;;10060264;28;20029;-72
2024/01/26 20:06:56;;;;;;;3.42;2.38;;;10.90;99.90;;;;;;10060544;28;20038;-72
2024/01/26 20:11:47;;;;;;;4.35;2.58;;;10.80;99.90;;;;;;10060626;28;20481;-73
2024/01/26 20:16:38;;;;;;;5.22;1.77;;;10.80;99.90;;;;;;10059613;28;20112;-71
2024/01/26 20:21:29;;;;;;;3.60;1.27;;;10.80;99.90;;;;;;10059706;28;20057;-73
2024/01/26 20:26:20;;;;;;;4.25;1.70;;;10.70;99.90;;;;;;10060628;28;20025;-73
2024/01/26 20:31:12;;;;;;;3.42;1.70;;;10.70;99.90;;;;;;10060446;28;20037;-72
2024/01/26 20:36:03;;;;;;;2.47;1.30;;;10.70;99.90;;;;;;10058814;28;20045;-73
2024/01/26 20:40:54;;;;;;;2.55;1.50;;;10.60;99.90;;;;;;10059199;28;20045;-72
2024/01/26 20:45:46;;;;;;;2.33;1.48;;;10.60;99.90;;;;;;10058922;28;20029;-72
2024/01/26 20:50:37;;;;;;;3.05;1.63;;;10.60;99.90;;;;;;10055501;28;20446;-73
2024/01/26 20:55:28;;;;;;;3.58;1.55;;;10.50;99.90;;;;;;10055015;28;20038;-73
2024/01/26 21:00:20;;;;;;;3.97;1.55;;;10.50;99.90;;;;;;10058433;28;20036;-73
2024/01/26 21:05:12;;;;;;;4.10;1.88;;;10.50;99.90;;;;;;10057179;28;20045;-72
2024/01/26 21:10:03;;;;;;;6.25;1.88;;;10.40;99.90;;;;;;10058242;28;20049;-73
2024/01/26 21:14:54;;;;;;;3.03;1.88;;;10.40;99.90;;;;;;10057543;28;20765;-74
2024/01/26 21:19:45;;;;;;;6.88;1.90;;;10.30;99.90;;;;;;10057812;28;20033;-72
2024/01/26 21:24:36;;;;;;;3.00;1.73;;;10.40;99.90;;;;;;10060150;28;20414;-73
2024/01/26 21:29:26;;;;;;;2.55;1.50;;;10.30;99.90;;;;;;10062670;28;20091;-71
2024/01/26 21:34:18;;;;;;;4.90;2.22;;;10.20;99.90;;;;;;10058072;28;20025;-72
2024/01/26 21:39:09;;;;;;;3.40;1.77;;;10.20;99.90;;;;;;10057204;28;20022;-72
2024/01/26 21:44:00;;;;;;;4.50;1.90;;;10.20;99.90;;;;;;10056979;28;20121;-73
2024/01/26 21:48:51;;;;;;;4.35;1.58;;;10.10;99.90;;;;;;10056139;28;20028;-73
2024/01/26 21:53:41;;;;;;;3.58;1.45;;;10.10;99.90;;;;;;10056546;28;20049;-74
2024/01/26 21:58:32;;;;;;;2.03;1.20;;;10.10;99.90;;;;;;10057024;28;20029;-73
2024/01/26 22:03:23;;;;;;;2.83;1.35;;;10.10;99.90;;;;;;10054876;28;20033;-72
2024/01/26 22:08:14;;;;;;;7.93;1.75;;;10.00;99.90;;;;;;10088097;28;20035;-70
2024/01/26 22:13:08;;;;;;;3.25;1.38;;;10.00;99.90;;;;;;10068252;28;20029;-71
2024/01/26 22:17:58;;;;;;;2.90;1.30;;;9.90;99.90;;;;;;10055031;28;20538;-69
2024/01/26 22:22:49;;;;;;;3.10;1.50;;;9.90;99.90;;;;;;10053923;28;20092;-71
2024/01/26 22:27:40;;;;;;;2.65;1.55;;;9.80;99.90;;;;;;10072799;28;20091;-69
2024/01/26 22:32:30;;;;;;;2.55;1.50;;;9.80;99.90;;;;;;10069303;28;20311;-70
2024/01/26 22:37:22;;;;;;;6.82;1.83;;;9.70;99.90;;;;;;10070817;28;20035;-71
2024/01/26 22:42:12;;;;;;;4.28;2.03;;;9.70;99.90;;;;;;10062890;28;20045;-70
2024/01/26 22:47:03;;;;;;;3.55;2.00;;;9.70;99.90;;;;;;10074211;28;20095;-72
2024/01/26 22:51:54;;;;;;;5.10;1.88;;;9.60;99.90;;;;;;10069846;28;20049;-69
2024/01/26 22:56:45;;;;;;;4.15;2.08;;;9.60;99.90;;;;;;10059996;28;20021;-69
2024/01/26 23:01:38;;;;;;;3.55;1.55;;;9.50;99.90;;;;;;10070223;28;20075;-71
2024/01/26 23:06:28;;;;;;;4.35;1.40;;;9.50;99.90;;;;;;10079326;28;20118;-69
2024/01/26 23:11:20;;;;;;;4.00;1.73;;;9.50;99.90;;;;;;10047544;28;20280;-71
2024/01/26 23:16:15;;;;;;;3.47;2.03;;;9.40;99.90;;;;;;10040063;28;20029;-71
2024/01/26 23:21:06;;;;;;;3.33;1.80;;;9.50;99.90;;;;;;10060742;28;20781;-71
2024/01/26 23:25:57;;;;;;;2.50;1.15;;;9.30;99.90;;;;;;10059978;28;20045;-70
2024/01/26 23:30:48;;;;;;;2.60;1.40;;;9.30;99.90;;;;;;10062849;28;20041;-70
2024/01/26 23:35:40;;;;;;;2.90;1.90;;;9.20;99.90;;;;;;10063126;28;20109;-71
2024/01/26 23:40:30;;;;;;;3.15;1.08;;;9.30;99.90;;;;;;10054557;28;20021;-72
2024/01/26 23:45:24;;;;;;;3.83;1.38;;;9.20;99.90;;;;;;10061096;28;20026;-71
2024/01/26 23:50:15;;;;;;;5.50;1.83;;;9.10;99.90;;;;;;10060770;28;20052;-71
2024/01/26 23:55:06;;;;;;;1.98;1.20;;;9.10;99.90;;;;;;10059054;28;20116;-70
2024/01/26 23:59:57;;;;;;;5.40;1.70;;;9.00;99.90;;;;;;10061344;28;20104;-70
